sensor_id;sensor_type;location;lat;lon;timestamp;P1;durP1;ratioP1;P2;durP2;ratioP2
33952;SDS011;20231;42.710;23.280;2022-11-15T00:01:17;81.18;;;37.70;;
33952;SDS011;20231;42.710;23.280;2022-11-15T00:03:43;74.05;;;38.35;;
33952;SDS011;20231;42.710;23.280;2022-11-15T00:06:09;74.68;;;36.70;;
33952;SDS011;20231;42.710;23.280;2022-11-15T00:08:34;66.57;;;35.10;;
33952;SDS011;20231;42.710;23.280;2022-11-15T00:11:00;69.05;;;35.08;;
33952;SDS011;20231;42.710;23.280;2022-11-15T00:13:27;66.03;;;35.38;;
33952;SDS011;20231;42.710;23.280;2022-11-15T00:15:56;66.97;;;35.78;;
33952;SDS011;20231;42.710;23.280;2022-11-15T00:18:22;61.92;;;35.05;;
33952;SDS011;20231;42.710;23.280;2022-11-15T00:20:47;68.65;;;34.95;;
33952;SDS011;20231;42.710;23.280;2022-11-15T00:23:13;69.35;;;36.03;;
33952;SDS011;20231;42.710;23.280;2022-11-15T00:25:38;68.95;;;35.03;;
33952;SDS011;20231;42.710;23.280;2022-11-15T00:28:03;72.50;;;36.05;;
33952;SDS011;20231;42.710;23.280;2022-11-15T00:30:29;70.32;;;35.53;;
33952;SDS011;20231;42.710;23.280;2022-11-15T00:32:55;74.93;;;34.80;;
33952;SDS011;20231;42.710;23.280;2022-11-15T00:35:21;66.55;;;35.72;;
33952;SDS011;20231;42.710;23.280;2022-11-15T00:37:47;83.93;;;46.22;;
33952;SDS011;20231;42.710;23.280;2022-11-15T00:40:12;94.75;;;49.75;;
33952;SDS011;20231;42.710;23.280;2022-11-15T00:42:38;95.25;;;48.63;;
33952;SDS011;20231;42.710;23.280;2022-11-15T00:45:04;96.32;;;47.35;;
33952;SDS011;20231;42.710;23.280;2022-11-15T00:47:30;91.82;;;50.92;;
33952;SDS011;20231;42.710;23.280;2022-11-15T00:49:55;157.50;;;81.93;;
33952;SDS011;20231;42.710;23.280;2022-11-15T00:52:21;145.70;;;72.55;;
33952;SDS011;20231;42.710;23.280;2022-11-15T00:54:46;143.60;;;75.95;;
33952;SDS011;20231;42.710;23.280;2022-11-15T00:57:12;156.35;;;84.25;;
33952;SDS011;20231;42.710;23.280;2022-11-15T00:59:38;145.60;;;75.68;;
33952;SDS011;20231;42.710;23.280;2022-11-15T01:02:03;112.20;;;59.10;;
33952;SDS011;20231;42.710;23.280;2022-11-15T01:04:29;103.07;;;52.97;;
33952;SDS011;20231;42.710;23.280;2022-11-15T01:06:54;95.75;;;44.55;;
33952;SDS011;20231;42.710;23.280;2022-11-15T01:09:20;79.75;;;39.45;;
33952;SDS011;20231;42.710;23.280;2022-11-15T01:11:45;81.57;;;41.78;;
33952;SDS011;20231;42.710;23.280;2022-11-15T01:14:10;72.82;;;37.00;;
33952;SDS011;20231;42.710;23.280;2022-11-15T01:16:36;67.65;;;36.83;;
33952;SDS011;20231;42.710;23.280;2022-11-15T01:19:01;76.75;;;40.13;;
33952;SDS011;20231;42.710;23.280;2022-11-15T01:21:27;74.95;;;37.50;;
33952;SDS011;20231;42.710;23.280;2022-11-15T01:23:56;71.38;;;35.80;;
33952;SDS011;20231;42.710;23.280;2022-11-15T01:26:23;72.40;;;35.95;;
33952;SDS011;20231;42.710;23.280;2022-11-15T01:28:49;72.47;;;35.40;;
33952;SDS011;20231;42.710;23.280;2022-11-15T01:31:16;67.70;;;33.13;;
33952;SDS011;20231;42.710;23.280;2022-11-15T01:33:43;67.32;;;32.47;;
33952;SDS011;20231;42.710;23.280;2022-11-15T01:36:10;66.55;;;34.80;;
33952;SDS011;20231;42.710;23.280;2022-11-15T01:38:37;67.28;;;32.38;;
33952;SDS011;20231;42.710;23.280;2022-11-15T01:41:03;68.22;;;33.35;;
33952;SDS011;20231;42.710;23.280;2022-11-15T01:43:30;71.80;;;33.63;;
33952;SDS011;20231;42.710;23.280;2022-11-15T01:46:00;71.90;;;34.53;;
33952;SDS011;20231;42.710;23.280;2022-11-15T01:48:34;58.13;;;32.33;;
33952;SDS011;20231;42.710;23.280;2022-11-15T01:51:00;60.15;;;31.35;;
33952;SDS011;20231;42.710;23.280;2022-11-15T01:53:27;58.80;;;31.05;;
33952;SDS011;20231;42.710;23.280;2022-11-15T01:55:54;58.20;;;31.40;;
33952;SDS011;20231;42.710;23.280;2022-11-15T01:58:21;61.38;;;29.88;;
33952;SDS011;20231;42.710;23.280;2022-11-15T02:00:46;62.67;;;31.63;;
33952;SDS011;20231;42.710;23.280;2022-11-15T02:03:13;60.33;;;31.50;;
33952;SDS011;20231;42.710;23.280;2022-11-15T02:05:38;55.50;;;28.77;;
33952;SDS011;20231;42.710;23.280;2022-11-15T02:08:05;55.70;;;29.83;;
33952;SDS011;20231;42.710;23.280;2022-11-15T02:10:31;50.30;;;26.95;;
33952;SDS011;20231;42.710;23.280;2022-11-15T02:12:57;56.65;;;27.65;;
33952;SDS011;20231;42.710;23.280;2022-11-15T02:15:26;56.03;;;28.73;;
33952;SDS011;20231;42.710;23.280;2022-11-15T02:24:27;67.95;;;28.60;;
33952;SDS011;20231;42.710;23.280;2022-11-15T02:29:41;58.08;;;28.55;;
33952;SDS011;20231;42.710;23.280;2022-11-15T02:32:19;60.60;;;27.38;;
33952;SDS011;20231;42.710;23.280;2022-11-15T02:40:46;42.58;;;22.08;;
33952;SDS011;20231;42.710;23.280;2022-11-15T02:43:11;58.28;;;28.33;;
33952;SDS011;20231;42.710;23.280;2022-11-15T02:46:01;56.53;;;28.00;;
33952;SDS011;20231;42.710;23.280;2022-11-15T02:48:31;51.90;;;28.45;;
33952;SDS011;20231;42.710;23.280;2022-11-15T02:50:57;48.58;;;27.08;;
33952;SDS011;20231;42.710;23.280;2022-11-15T02:53:27;50.80;;;27.42;;
33952;SDS011;20231;42.710;23.280;2022-11-15T02:55:53;54.70;;;27.48;;
33952;SDS011;20231;42.710;23.280;2022-11-15T03:10:26;54.70;;;29.45;;
33952;SDS011;20231;42.710;23.280;2022-11-15T03:12:28;61.88;;;30.08;;
33952;SDS011;20231;42.710;23.280;2022-11-15T03:15:21;57.97;;;30.25;;
33952;SDS011;20231;42.710;23.280;2022-11-15T03:17:53;61.45;;;29.73;;
33952;SDS011;20231;42.710;23.280;2022-11-15T03:20:25;55.22;;;29.63;;
33952;SDS011;20231;42.710;23.280;2022-11-15T03:22:52;51.63;;;29.27;;
33952;SDS011;20231;42.710;23.280;2022-11-15T03:25:21;56.67;;;30.13;;
33952;SDS011;20231;42.710;23.280;2022-11-15T03:27:50;51.40;;;28.65;;
33952;SDS011;20231;42.710;23.280;2022-11-15T03:30:17;55.10;;;28.63;;
33952;SDS011;20231;42.710;23.280;2022-11-15T03:32:45;50.15;;;29.30;;
33952;SDS011;20231;42.710;23.280;2022-11-15T03:35:22;56.13;;;30.10;;
33952;SDS011;20231;42.710;23.280;2022-11-15T03:37:54;64.45;;;31.17;;
33952;SDS011;20231;42.710;23.280;2022-11-15T03:41:01;57.55;;;29.13;;
33952;SDS011;20231;42.710;23.280;2022-11-15T03:43:35;71.47;;;32.20;;
33952;SDS011;20231;42.710;23.280;2022-11-15T03:46:10;66.78;;;32.05;;
33952;SDS011;20231;42.710;23.280;2022-11-15T03:48:52;76.05;;;34.78;;
33952;SDS011;20231;42.710;23.280;2022-11-15T03:51:23;78.78;;;33.22;;
33952;SDS011;20231;42.710;23.280;2022-11-15T03:53:49;86.53;;;36.00;;
33952;SDS011;20231;42.710;23.280;2022-11-15T03:56:15;89.63;;;35.13;;
33952;SDS011;20231;42.710;23.280;2022-11-15T03:58:40;103.28;;;39.38;;
33952;SDS011;20231;42.710;23.280;2022-11-15T04:01:06;241.60;;;37.92;;
33952;SDS011;20231;42.710;23.280;2022-11-15T04:03:31;188.32;;;37.72;;
33952;SDS011;20231;42.710;23.280;2022-11-15T04:05:56;85.63;;;36.08;;
33952;SDS011;20231;42.710;23.280;2022-11-15T04:08:22;91.63;;;34.38;;
33952;SDS011;20231;42.710;23.280;2022-11-15T04:10:50;79.55;;;35.58;;
33952;SDS011;20231;42.710;23.280;2022-11-15T04:13:16;80.55;;;34.05;;
33952;SDS011;20231;42.710;23.280;2022-11-15T04:15:41;77.57;;;35.08;;
33952;SDS011;20231;42.710;23.280;2022-11-15T04:18:07;92.20;;;38.40;;
33952;SDS011;20231;42.710;23.280;2022-11-15T04:20:32;91.65;;;39.45;;
33952;SDS011;20231;42.710;23.280;2022-11-15T04:23:21;95.55;;;38.83;;
33952;SDS011;20231;42.710;23.280;2022-11-15T04:26:10;81.80;;;36.08;;
33952;SDS011;20231;42.710;23.280;2022-11-15T04:28:38;91.03;;;36.90;;
33952;SDS011;20231;42.710;23.280;2022-11-15T04:31:22;114.15;;;34.92;;
33952;SDS011;20231;42.710;23.280;2022-11-15T04:33:47;94.05;;;38.45;;
33952;SDS011;20231;42.710;23.280;2022-11-15T04:36:13;93.93;;;38.00;;
33952;SDS011;20231;42.710;23.280;2022-11-15T04:38:57;87.50;;;37.88;;
33952;SDS011;20231;42.710;23.280;2022-11-15T04:41:22;89.38;;;39.42;;
33952;SDS011;20231;42.710;23.280;2022-11-15T04:43:48;86.30;;;37.08;;
33952;SDS011;20231;42.710;23.280;2022-11-15T04:46:13;95.88;;;38.55;;
33952;SDS011;20231;42.710;23.280;2022-11-15T04:48:39;91.20;;;37.88;;
33952;SDS011;20231;42.710;23.280;2022-11-15T04:51:04;76.38;;;36.03;;
33952;SDS011;20231;42.710;23.280;2022-11-15T04:53:29;81.20;;;36.72;;
33952;SDS011;20231;42.710;23.280;2022-11-15T04:55:55;75.90;;;35.35;;
33952;SDS011;20231;42.710;23.280;2022-11-15T04:58:20;90.07;;;37.10;;
33952;SDS011;20231;42.710;23.280;2022-11-15T05:00:46;79.30;;;37.40;;
33952;SDS011;20231;42.710;23.280;2022-11-15T05:03:11;92.55;;;40.15;;
33952;SDS011;20231;42.710;23.280;2022-11-15T05:05:55;143.32;;;44.15;;
33952;SDS011;20231;42.710;23.280;2022-11-15T05:08:21;99.70;;;42.45;;
33952;SDS011;20231;42.710;23.280;2022-11-15T05:10:47;97.28;;;43.38;;
33952;SDS011;20231;42.710;23.280;2022-11-15T05:13:12;123.03;;;44.95;;
33952;SDS011;20231;42.710;23.280;2022-11-15T05:15:39;121.22;;;47.50;;
33952;SDS011;20231;42.710;23.280;2022-11-15T05:18:04;107.07;;;45.85;;
33952;SDS011;20231;42.710;23.280;2022-11-15T05:20:30;115.50;;;46.25;;
33952;SDS011;20231;42.710;23.280;2022-11-15T05:22:55;113.80;;;45.85;;
33952;SDS011;20231;42.710;23.280;2022-11-15T05:25:21;109.47;;;45.88;;
33952;SDS011;20231;42.710;23.280;2022-11-15T05:27:47;117.88;;;47.42;;
33952;SDS011;20231;42.710;23.280;2022-11-15T05:30:13;96.05;;;42.00;;
33952;SDS011;20231;42.710;23.280;2022-11-15T05:32:39;91.05;;;39.88;;
33952;SDS011;20231;42.710;23.280;2022-11-15T05:35:04;94.82;;;38.85;;
33952;SDS011;20231;42.710;23.280;2022-11-15T05:37:33;106.10;;;41.63;;
33952;SDS011;20231;42.710;23.280;2022-11-15T05:39:59;86.63;;;36.45;;
33952;SDS011;20231;42.710;23.280;2022-11-15T05:42:24;89.30;;;35.63;;
33952;SDS011;20231;42.710;23.280;2022-11-15T05:44:51;82.68;;;35.08;;
33952;SDS011;20231;42.710;23.280;2022-11-15T05:47:18;78.20;;;33.92;;
33952;SDS011;20231;42.710;23.280;2022-11-15T05:49:48;78.57;;;32.80;;
33952;SDS011;20231;42.710;23.280;2022-11-15T05:52:16;78.50;;;32.75;;
33952;SDS011;20231;42.710;23.280;2022-11-15T05:54:45;81.43;;;34.22;;
33952;SDS011;20231;42.710;23.280;2022-11-15T05:57:10;103.65;;;36.47;;
33952;SDS011;20231;42.710;23.280;2022-11-15T05:59:36;94.47;;;37.13;;
33952;SDS011;20231;42.710;23.280;2022-11-15T06:02:02;105.85;;;37.33;;
33952;SDS011;20231;42.710;23.280;2022-11-15T06:04:28;175.10;;;39.28;;
33952;SDS011;20231;42.710;23.280;2022-11-15T06:06:53;84.28;;;35.60;;
33952;SDS011;20231;42.710;23.280;2022-11-15T06:09:18;83.72;;;35.67;;
33952;SDS011;20231;42.710;23.280;2022-11-15T06:11:44;94.03;;;37.85;;
33952;SDS011;20231;42.710;23.280;2022-11-15T06:14:09;101.13;;;36.58;;
33952;SDS011;20231;42.710;23.280;2022-11-15T06:16:35;91.75;;;37.55;;
33952;SDS011;20231;42.710;23.280;2022-11-15T06:19:00;86.85;;;36.88;;
33952;SDS011;20231;42.710;23.280;2022-11-15T06:21:26;96.15;;;36.95;;
33952;SDS011;20231;42.710;23.280;2022-11-15T06:23:52;90.80;;;37.35;;
33952;SDS011;20231;42.710;23.280;2022-11-15T06:26:18;95.47;;;38.63;;
33952;SDS011;20231;42.710;23.280;2022-11-15T06:28:43;97.22;;;40.33;;
33952;SDS011;20231;42.710;23.280;2022-11-15T06:31:09;103.53;;;42.03;;
33952;SDS011;20231;42.710;23.280;2022-11-15T06:33:38;98.30;;;40.97;;
33952;SDS011;20231;42.710;23.280;2022-11-15T06:36:05;99.93;;;42.55;;
33952;SDS011;20231;42.710;23.280;2022-11-15T06:38:33;103.30;;;43.13;;
33952;SDS011;20231;42.710;23.280;2022-11-15T06:41:02;110.60;;;42.75;;
33952;SDS011;20231;42.710;23.280;2022-11-15T06:43:28;108.35;;;43.05;;
33952;SDS011;20231;42.710;23.280;2022-11-15T06:45:53;98.63;;;40.60;;
33952;SDS011;20231;42.710;23.280;2022-11-15T06:48:19;101.10;;;40.05;;
33952;SDS011;20231;42.710;23.280;2022-11-15T06:50:50;91.07;;;38.88;;
33952;SDS011;20231;42.710;23.280;2022-11-15T06:53:19;102.65;;;41.17;;
33952;SDS011;20231;42.710;23.280;2022-11-15T06:55:44;96.63;;;40.53;;
33952;SDS011;20231;42.710;23.280;2022-11-15T06:58:09;105.63;;;43.30;;
33952;SDS011;20231;42.710;23.280;2022-11-15T07:00:35;94.57;;;40.47;;
33952;SDS011;20231;42.710;23.280;2022-11-15T07:03:01;96.85;;;40.05;;
33952;SDS011;20231;42.710;23.280;2022-11-15T07:05:27;91.20;;;38.53;;
33952;SDS011;20231;42.710;23.280;2022-11-15T07:07:53;92.72;;;38.45;;
33952;SDS011;20231;42.710;23.280;2022-11-15T07:10:19;105.10;;;42.83;;
33952;SDS011;20231;42.710;23.280;2022-11-15T07:12:48;101.95;;;40.88;;
33952;SDS011;20231;42.710;23.280;2022-11-15T07:15:14;99.43;;;40.78;;
33952;SDS011;20231;42.710;23.280;2022-11-15T07:17:40;106.00;;;40.22;;
33952;SDS011;20231;42.710;23.280;2022-11-15T07:20:06;109.53;;;42.67;;
33952;SDS011;20231;42.710;23.280;2022-11-15T07:22:32;112.82;;;40.17;;
33952;SDS011;20231;42.710;23.280;2022-11-15T07:24:57;119.25;;;43.15;;
33952;SDS011;20231;42.710;23.280;2022-11-15T07:27:22;102.95;;;41.40;;
33952;SDS011;20231;42.710;23.280;2022-11-15T07:29:48;103.45;;;39.00;;
33952;SDS011;20231;42.710;23.280;2022-11-15T07:32:13;110.43;;;43.58;;
33952;SDS011;20231;42.710;23.280;2022-11-15T07:34:38;99.45;;;43.35;;
33952;SDS011;20231;42.710;23.280;2022-11-15T07:37:04;107.50;;;42.65;;
33952;SDS011;20231;42.710;23.280;2022-11-15T07:39:29;115.22;;;44.13;;
33952;SDS011;20231;42.710;23.280;2022-11-15T07:41:55;124.95;;;48.75;;
33952;SDS011;20231;42.710;23.280;2022-11-15T07:44:40;119.87;;;45.67;;
33952;SDS011;20231;42.710;23.280;2022-11-15T07:47:05;114.60;;;45.25;;
33952;SDS011;20231;42.710;23.280;2022-11-15T07:49:31;116.90;;;45.70;;
33952;SDS011;20231;42.710;23.280;2022-11-15T07:51:56;119.28;;;46.20;;
33952;SDS011;20231;42.710;23.280;2022-11-15T07:54:22;131.20;;;49.00;;
33952;SDS011;20231;42.710;23.280;2022-11-15T07:56:47;134.38;;;48.15;;
33952;SDS011;20231;42.710;23.280;2022-11-15T07:59:13;118.50;;;47.90;;
33952;SDS011;20231;42.710;23.280;2022-11-15T08:01:38;121.63;;;48.13;;
33952;SDS011;20231;42.710;23.280;2022-11-15T08:04:04;126.22;;;48.60;;
33952;SDS011;20231;42.710;23.280;2022-11-15T08:06:29;130.13;;;51.72;;
33952;SDS011;20231;42.710;23.280;2022-11-15T08:08:55;120.25;;;50.28;;
33952;SDS011;20231;42.710;23.280;2022-11-15T08:11:20;125.35;;;49.63;;
33952;SDS011;20231;42.710;23.280;2022-11-15T08:13:46;119.80;;;47.42;;
33952;SDS011;20231;42.710;23.280;2022-11-15T08:16:11;121.18;;;48.83;;
33952;SDS011;20231;42.710;23.280;2022-11-15T08:18:37;119.57;;;50.92;;
33952;SDS011;20231;42.710;23.280;2022-11-15T08:21:03;112.88;;;49.13;;
33952;SDS011;20231;42.710;23.280;2022-11-15T08:23:28;118.85;;;48.55;;
33952;SDS011;20231;42.710;23.280;2022-11-15T08:26:01;109.03;;;44.58;;
33952;SDS011;20231;42.710;23.280;2022-11-15T08:28:28;96.03;;;41.78;;
33952;SDS011;20231;42.710;23.280;2022-11-15T08:30:54;95.53;;;39.72;;
33952;SDS011;20231;42.710;23.280;2022-11-15T08:33:20;92.63;;;40.50;;
33952;SDS011;20231;42.710;23.280;2022-11-15T08:35:45;96.15;;;42.30;;
33952;SDS011;20231;42.710;23.280;2022-11-15T08:38:11;95.20;;;39.88;;
33952;SDS011;20231;42.710;23.280;2022-11-15T08:40:36;111.93;;;44.58;;
33952;SDS011;20231;42.710;23.280;2022-11-15T08:43:02;99.95;;;43.25;;
33952;SDS011;20231;42.710;23.280;2022-11-15T08:45:28;98.47;;;45.45;;
33952;SDS011;20231;42.710;23.280;2022-11-15T08:47:54;104.28;;;45.40;;
33952;SDS011;20231;42.710;23.280;2022-11-15T08:50:20;108.25;;;45.88;;
33952;SDS011;20231;42.710;23.280;2022-11-15T08:52:45;101.68;;;44.75;;
33952;SDS011;20231;42.710;23.280;2022-11-15T08:55:13;114.88;;;46.80;;
33952;SDS011;20231;42.710;23.280;2022-11-15T08:57:38;108.45;;;47.92;;
33952;SDS011;20231;42.710;23.280;2022-11-15T09:00:04;107.63;;;46.83;;
33952;SDS011;20231;42.710;23.280;2022-11-15T09:02:30;120.20;;;47.83;;
33952;SDS011;20231;42.710;23.280;2022-11-15T09:04:55;107.97;;;47.72;;
33952;SDS011;20231;42.710;23.280;2022-11-15T09:07:20;114.38;;;50.95;;
33952;SDS011;20231;42.710;23.280;2022-11-15T09:09:46;119.65;;;50.05;;
33952;SDS011;20231;42.710;23.280;2022-11-15T09:12:11;115.10;;;50.90;;
33952;SDS011;20231;42.710;23.280;2022-11-15T09:14:36;127.78;;;52.13;;
33952;SDS011;20231;42.710;23.280;2022-11-15T09:17:02;129.27;;;53.60;;
33952;SDS011;20231;42.710;23.280;2022-11-15T09:19:28;128.70;;;55.20;;
33952;SDS011;20231;42.710;23.280;2022-11-15T09:21:53;128.05;;;55.88;;
33952;SDS011;20231;42.710;23.280;2022-11-15T09:24:20;138.60;;;57.58;;
33952;SDS011;20231;42.710;23.280;2022-11-15T09:26:46;144.60;;;58.38;;
33952;SDS011;20231;42.710;23.280;2022-11-15T09:29:11;145.70;;;60.92;;
33952;SDS011;20231;42.710;23.280;2022-11-15T09:31:36;136.43;;;56.10;;
33952;SDS011;20231;42.710;23.280;2022-11-15T09:34:02;136.02;;;58.92;;
33952;SDS011;20231;42.710;23.280;2022-11-15T09:36:27;136.75;;;58.30;;
33952;SDS011;20231;42.710;23.280;2022-11-15T09:38:53;141.90;;;62.17;;
33952;SDS011;20231;42.710;23.280;2022-11-15T09:44:24;137.07;;;60.60;;
33952;SDS011;20231;42.710;23.280;2022-11-15T09:50:08;130.93;;;55.00;;
33952;SDS011;20231;42.710;23.280;2022-11-15T09:52:36;126.72;;;54.33;;
33952;SDS011;20231;42.710;23.280;2022-11-15T09:55:04;118.72;;;56.67;;
33952;SDS011;20231;42.710;23.280;2022-11-15T10:00:40;118.82;;;53.95;;
33952;SDS011;20231;42.710;23.280;2022-11-15T10:03:13;121.55;;;55.97;;
33952;SDS011;20231;42.710;23.280;2022-11-15T10:05:42;119.22;;;56.55;;
33952;SDS011;20231;42.710;23.280;2022-11-15T10:10:45;115.07;;;52.67;;
33952;SDS011;20231;42.710;23.280;2022-11-15T10:13:23;116.47;;;54.65;;
33952;SDS011;20231;42.710;23.280;2022-11-15T10:15:51;114.53;;;56.03;;
33952;SDS011;20231;42.710;23.280;2022-11-15T10:19:08;120.03;;;55.60;;
33952;SDS011;20231;42.710;23.280;2022-11-15T10:21:20;121.75;;;55.85;;
33952;SDS011;20231;42.710;23.280;2022-11-15T10:23:48;94.40;;;39.92;;
33952;SDS011;20231;42.710;23.280;2022-11-15T10:26:15;99.65;;;45.67;;
33952;SDS011;20231;42.710;23.280;2022-11-15T10:28:42;116.82;;;55.45;;
33952;SDS011;20231;42.710;23.280;2022-11-15T10:31:29;110.35;;;54.03;;
33952;SDS011;20231;42.710;23.280;2022-11-15T10:33:59;110.47;;;53.47;;
33952;SDS011;20231;42.710;23.280;2022-11-15T10:36:38;105.72;;;54.15;;
33952;SDS011;20231;42.710;23.280;2022-11-15T10:39:11;107.82;;;52.60;;
33952;SDS011;20231;42.710;23.280;2022-11-15T10:41:39;112.03;;;53.60;;
33952;SDS011;20231;42.710;23.280;2022-11-15T10:46:32;101.20;;;53.15;;
33952;SDS011;20231;42.710;23.280;2022-11-15T10:49:13;111.72;;;53.70;;
33952;SDS011;20231;42.710;23.280;2022-11-15T10:51:54;106.88;;;49.92;;
33952;SDS011;20231;42.710;23.280;2022-11-15T10:54:43;103.43;;;49.95;;
33952;SDS011;20231;42.710;23.280;2022-11-15T10:57:19;101.75;;;50.33;;
33952;SDS011;20231;42.710;23.280;2022-11-15T10:59:48;95.55;;;48.65;;
33952;SDS011;20231;42.710;23.280;2022-11-15T11:05:06;102.88;;;51.70;;
33952;SDS011;20231;42.710;23.280;2022-11-15T11:08:00;102.05;;;51.45;;
33952;SDS011;20231;42.710;23.280;2022-11-15T11:10:34;101.47;;;50.30;;
33952;SDS011;20231;42.710;23.280;2022-11-15T11:21:22;107.88;;;52.60;;
33952;SDS011;20231;42.710;23.280;2022-11-15T11:27:17;107.22;;;54.85;;
33952;SDS011;20231;42.710;23.280;2022-11-15T11:29:47;113.35;;;56.72;;
33952;SDS011;20231;42.710;23.280;2022-11-15T11:35:13;125.35;;;60.47;;
33952;SDS011;20231;42.710;23.280;2022-11-15T11:48:56;122.22;;;61.97;;
33952;SDS011;20231;42.710;23.280;2022-11-15T11:51:41;125.38;;;62.92;;
33952;SDS011;20231;42.710;23.280;2022-11-15T11:56:45;122.68;;;60.72;;
33952;SDS011;20231;42.710;23.280;2022-11-15T11:59:33;119.93;;;60.35;;
33952;SDS011;20231;42.710;23.280;2022-11-15T12:02:02;113.38;;;59.50;;
33952;SDS011;20231;42.710;23.280;2022-11-15T12:04:40;116.22;;;58.70;;
33952;SDS011;20231;42.710;23.280;2022-11-15T12:07:27;116.93;;;58.30;;
33952;SDS011;20231;42.710;23.280;2022-11-15T12:12:41;102.35;;;55.75;;
33952;SDS011;20231;42.710;23.280;2022-11-15T12:15:35;102.78;;;55.42;;
33952;SDS011;20231;42.710;23.280;2022-11-15T12:18:07;106.35;;;56.20;;
33952;SDS011;20231;42.710;23.280;2022-11-15T12:20:39;110.88;;;56.58;;
33952;SDS011;20231;42.710;23.280;2022-11-15T12:23:17;107.53;;;57.67;;
33952;SDS011;20231;42.710;23.280;2022-11-15T12:28:16;102.93;;;56.47;;
33952;SDS011;20231;42.710;23.280;2022-11-15T12:30:57;117.15;;;56.55;;
33952;SDS011;20231;42.710;23.280;2022-11-15T12:36:03;108.97;;;56.22;;
33952;SDS011;20231;42.710;23.280;2022-11-15T12:38:52;115.35;;;59.03;;
33952;SDS011;20231;42.710;23.280;2022-11-15T12:41:19;109.93;;;57.63;;
33952;SDS011;20231;42.710;23.280;2022-11-15T12:43:45;111.10;;;59.75;;
33952;SDS011;20231;42.710;23.280;2022-11-15T12:46:19;122.18;;;62.03;;
33952;SDS011;20231;42.710;23.280;2022-11-15T12:48:51;87.10;;;44.22;;
33952;SDS011;20231;42.710;23.280;2022-11-15T12:51:19;114.95;;;57.03;;
33952;SDS011;20231;42.710;23.280;2022-11-15T12:53:46;118.07;;;60.67;;
33952;SDS011;20231;42.710;23.280;2022-11-15T13:04:24;120.78;;;61.80;;
33952;SDS011;20231;42.710;23.280;2022-11-15T13:07:02;111.47;;;59.63;;
33952;SDS011;20231;42.710;23.280;2022-11-15T13:12:10;101.45;;;53.53;;
33952;SDS011;20231;42.710;23.280;2022-11-15T13:14:52;100.30;;;52.88;;
33952;SDS011;20231;42.710;23.280;2022-11-15T13:19:43;102.93;;;53.35;;
33952;SDS011;20231;42.710;23.280;2022-11-15T13:22:11;95.20;;;51.03;;
33952;SDS011;20231;42.710;23.280;2022-11-15T13:24:55;93.13;;;51.95;;
33952;SDS011;20231;42.710;23.280;2022-11-15T13:27:21;96.93;;;54.40;;
33952;SDS011;20231;42.710;23.280;2022-11-15T13:29:47;105.75;;;53.95;;
33952;SDS011;20231;42.710;23.280;2022-11-15T13:32:13;88.75;;;51.05;;
33952;SDS011;20231;42.710;23.280;2022-11-15T13:34:43;101.38;;;53.00;;
33952;SDS011;20231;42.710;23.280;2022-11-15T13:37:32;106.35;;;55.50;;
33952;SDS011;20231;42.710;23.280;2022-11-15T13:42:45;110.70;;;55.13;;
33952;SDS011;20231;42.710;23.280;2022-11-15T13:45:12;100.88;;;53.58;;
33952;SDS011;20231;42.710;23.280;2022-11-15T13:47:40;102.20;;;55.15;;
33952;SDS011;20231;42.710;23.280;2022-11-15T13:50:05;106.15;;;54.40;;
33952;SDS011;20231;42.710;23.280;2022-11-15T13:52:33;107.18;;;52.80;;
33952;SDS011;20231;42.710;23.280;2022-11-15T13:58:01;104.55;;;52.33;;
33952;SDS011;20231;42.710;23.280;2022-11-15T14:00:41;105.07;;;53.20;;
33952;SDS011;20231;42.710;23.280;2022-11-15T14:05:42;108.43;;;54.08;;
33952;SDS011;20231;42.710;23.280;2022-11-15T14:10:43;99.50;;;54.25;;
33952;SDS011;20231;42.710;23.280;2022-11-15T14:13:27;94.30;;;51.03;;
33952;SDS011;20231;42.710;23.280;2022-11-15T14:16:11;105.03;;;53.80;;
33952;SDS011;20231;42.710;23.280;2022-11-15T14:18:40;105.13;;;51.83;;
33952;SDS011;20231;42.710;23.280;2022-11-15T14:21:07;94.68;;;47.50;;
33952;SDS011;20231;42.710;23.280;2022-11-15T14:23:33;92.00;;;49.22;;
33952;SDS011;20231;42.710;23.280;2022-11-15T14:25:58;93.45;;;48.97;;
33952;SDS011;20231;42.710;23.280;2022-11-15T14:30:51;97.90;;;50.17;;
33952;SDS011;20231;42.710;23.280;2022-11-15T14:36:10;101.15;;;50.22;;
33952;SDS011;20231;42.710;23.280;2022-11-15T14:38:37;93.03;;;48.00;;
33952;SDS011;20231;42.710;23.280;2022-11-15T14:41:03;98.05;;;49.38;;
33952;SDS011;20231;42.710;23.280;2022-11-15T14:43:29;91.65;;;45.25;;
33952;SDS011;20231;42.710;23.280;2022-11-15T14:45:54;80.25;;;45.38;;
33952;SDS011;20231;42.710;23.280;2022-11-15T14:48:19;91.20;;;47.47;;
33952;SDS011;20231;42.710;23.280;2022-11-15T14:50:45;87.53;;;46.33;;
33952;SDS011;20231;42.710;23.280;2022-11-15T14:53:17;82.68;;;46.17;;
33952;SDS011;20231;42.710;23.280;2022-11-15T14:55:43;89.22;;;46.55;;
33952;SDS011;20231;42.710;23.280;2022-11-15T14:58:09;86.25;;;46.33;;
33952;SDS011;20231;42.710;23.280;2022-11-15T15:00:38;84.32;;;47.60;;
33952;SDS011;20231;42.710;23.280;2022-11-15T15:03:05;88.22;;;47.95;;
33952;SDS011;20231;42.710;23.280;2022-11-15T15:05:39;82.85;;;45.80;;
33952;SDS011;20231;42.710;23.280;2022-11-15T15:08:06;79.80;;;43.58;;
33952;SDS011;20231;42.710;23.280;2022-11-15T15:10:39;79.40;;;45.22;;
33952;SDS011;20231;42.710;23.280;2022-11-15T15:13:10;84.85;;;44.90;;
33952;SDS011;20231;42.710;23.280;2022-11-15T15:15:42;84.85;;;45.08;;
33952;SDS011;20231;42.710;23.280;2022-11-15T15:18:08;85.65;;;45.58;;
33952;SDS011;20231;42.710;23.280;2022-11-15T15:20:40;84.13;;;45.17;;
33952;SDS011;20231;42.710;23.280;2022-11-15T15:23:14;81.70;;;45.00;;
33952;SDS011;20231;42.710;23.280;2022-11-15T15:25:41;89.50;;;46.08;;
33952;SDS011;20231;42.710;23.280;2022-11-15T15:28:07;97.65;;;45.70;;
33952;SDS011;20231;42.710;23.280;2022-11-15T15:30:32;86.88;;;46.35;;
33952;SDS011;20231;42.710;23.280;2022-11-15T15:32:57;90.85;;;45.47;;
33952;SDS011;20231;42.710;23.280;2022-11-15T15:35:23;88.93;;;45.75;;
33952;SDS011;20231;42.710;23.280;2022-11-15T15:37:54;90.93;;;48.20;;
33952;SDS011;20231;42.710;23.280;2022-11-15T15:40:20;86.22;;;45.60;;
33952;SDS011;20231;42.710;23.280;2022-11-15T15:42:47;99.80;;;50.58;;
33952;SDS011;20231;42.710;23.280;2022-11-15T15:45:13;106.05;;;54.25;;
33952;SDS011;20231;42.710;23.280;2022-11-15T15:47:40;110.38;;;60.20;;
33952;SDS011;20231;42.710;23.280;2022-11-15T15:52:55;128.55;;;65.90;;
33952;SDS011;20231;42.710;23.280;2022-11-15T15:55:21;126.93;;;63.65;;
33952;SDS011;20231;42.710;23.280;2022-11-15T15:57:47;107.45;;;57.92;;
33952;SDS011;20231;42.710;23.280;2022-11-15T16:00:13;101.97;;;53.88;;
33952;SDS011;20231;42.710;23.280;2022-11-15T16:02:40;95.03;;;52.72;;
33952;SDS011;20231;42.710;23.280;2022-11-15T16:05:06;114.47;;;59.25;;